Time;durP1;ratioP1;P1;durP2;ratioP2;P2;SDS_P1;SDS_P2;PMS_P1;PMS_P2;Temp;Humidity;BMP_temperature;BMP_pressure;BME280_temperature;BME280_humidity;BME280_pressure;Samples;Min_cycle;Max_cycle;Signal;HPM_P1;HPM_P2
2022/12/08 00:01:45;;;;;;;8.80;0.60;;;1.50;99.90;;;;;;5133670;27;20050;-82
2022/12/08 00:04:11;;;;;;;8.07;0.60;;;1.50;99.90;;;;;;5133539;27;20066;-78
2022/12/08 00:09:31;;;;;;;4.78;0.63;;;1.50;99.90;;;;;;5115760;28;20388;-78
2022/12/08 00:12:06;;;;;;;9.27;0.70;;;1.30;99.90;;;;;;5132877;27;20046;-80
2022/12/08 00:14:37;;;;;;;6.53;0.60;;;1.30;99.90;;;;;;5115927;27;20066;-79
2022/12/08 00:17:04;;;;;;;8.13;0.68;;;1.30;99.90;;;;;;5133659;28;20050;-78
2022/12/08 00:19:30;;;;;;;5.82;0.70;;;1.30;99.90;;;;;;5120667;28;20123;-79
2022/12/08 00:21:57;;;;;;;7.20;0.98;;;1.30;99.90;;;;;;5127540;28;20062;-80
2022/12/08 00:24:28;;;;;;;10.07;1.20;;;1.30;99.90;;;;;;5146305;28;20051;-81
2022/12/08 00:26:54;;;;;;;4.20;0.60;;;1.30;99.90;;;;;;5142700;28;20417;-78
2022/12/08 00:29:19;;;;;;;3.83;0.82;;;1.30;99.90;;;;;;5139431;28;20089;-78
2022/12/08 00:31:45;;;;;;;14.30;0.98;;;1.20;99.90;;;;;;5138266;28;20043;-79
2022/12/08 00:34:13;;;;;;;5.80;1.00;;;1.30;99.90;;;;;;5119440;28;20051;-79
2022/12/08 00:36:38;;;;;;;5.70;1.05;;;1.20;99.90;;;;;;5134736;28;20035;-80
2022/12/08 00:39:04;;;;;;;11.43;1.77;;;1.30;99.90;;;;;;5134328;28;20047;-79
2022/12/08 00:44:17;;;;;;;9.90;1.70;;;1.30;99.90;;;;;;5115468;28;20423;-79
2022/12/08 00:46:44;;;;;;;11.57;2.00;;;1.30;99.90;;;;;;5132872;28;20043;-77
2022/12/08 00:49:10;;;;;;;12.13;2.50;;;1.30;99.90;;;;;;5132702;28;20126;-79
2022/12/08 00:51:36;;;;;;;15.52;2.53;;;1.30;99.90;;;;;;5132630;28;20090;-80
2022/12/08 00:54:02;;;;;;;9.80;2.70;;;1.30;99.90;;;;;;5114871;28;20083;-78
2022/12/08 00:56:29;;;;;;;10.65;2.78;;;1.30;99.90;;;;;;5133090;28;20186;-77
2022/12/08 00:58:54;;;;;;;13.25;3.17;;;1.20;99.90;;;;;;5097473;28;20047;-79
2022/12/08 01:01:20;;;;;;;12.52;3.33;;;1.20;99.90;;;;;;5132502;28;20051;-78
2022/12/08 01:03:46;;;;;;;16.05;3.92;;;1.20;99.90;;;;;;5114335;28;20039;-78
2022/12/08 01:06:12;;;;;;;9.90;3.53;;;1.20;99.90;;;;;;5115205;28;20060;-78
2022/12/08 01:08:39;;;;;;;12.80;3.42;;;1.20;99.90;;;;;;5132892;28;20094;-79
2022/12/08 01:11:13;;;;;;;14.68;3.70;;;1.20;99.90;;;;;;5133343;27;20047;-80
2022/12/08 01:13:40;;;;;;;13.82;4.32;;;1.20;99.90;;;;;;5136418;27;20051;-80
2022/12/08 01:16:06;;;;;;;16.25;4.30;;;1.20;99.90;;;;;;5136781;27;20146;-80
2022/12/08 01:18:32;;;;;;;14.65;4.28;;;1.30;99.90;;;;;;5136681;27;20103;-81
2022/12/08 01:21:06;;;;;;;13.50;4.30;;;1.30;99.90;;;;;;5135939;27;20046;-78
2022/12/08 01:23:33;;;;;;;14.00;4.18;;;1.40;99.90;;;;;;5117794;27;20081;-78
2022/12/08 01:26:03;;;;;;;12.77;4.07;;;1.50;99.90;;;;;;5136163;27;20054;-79
2022/12/08 01:28:30;;;;;;;17.58;4.20;;;1.60;99.90;;;;;;5135691;27;20054;-78
2022/12/08 01:30:57;;;;;;;14.82;4.32;;;1.70;99.90;;;;;;5136659;27;20173;-79
2022/12/08 01:33:23;;;;;;;12.85;3.95;;;1.80;99.90;;;;;;5136545;27;20054;-78
2022/12/08 01:35:49;;;;;;;15.50;4.38;;;1.90;99.90;;;;;;5136374;27;20043;-82
2022/12/08 01:38:14;;;;;;;17.92;4.10;;;2.00;99.90;;;;;;5136693;27;20093;-80
2022/12/08 01:40:40;;;;;;;14.57;4.57;;;2.10;99.90;;;;;;5118513;27;20047;-81
2022/12/08 01:43:09;;;;;;;15.70;4.95;;;2.20;99.90;;;;;;5135961;27;20043;-79
2022/12/08 01:45:35;;;;;;;13.25;4.32;;;2.30;99.90;;;;;;5135386;27;20047;-80
2022/12/08 01:48:06;;;;;;;10.50;4.07;;;2.30;99.90;;;;;;5117709;27;20057;-81
2022/12/08 01:50:32;;;;;;;16.65;4.25;;;2.30;99.90;;;;;;5136340;27;20126;-80
2022/12/08 01:53:09;;;;;;;14.48;3.95;;;2.40;99.90;;;;;;5135920;27;20039;-79
2022/12/08 01:55:42;;;;;;;11.15;3.92;;;2.40;99.90;;;;;;5136136;27;20163;-80
2022/12/08 01:58:20;;;;;;;13.52;3.40;;;2.40;99.90;;;;;;5137064;27;20427;-80
2022/12/08 02:00:48;;;;;;;14.45;3.85;;;2.40;99.90;;;;;;5117878;27;20043;-78
2022/12/08 02:03:16;;;;;;;;;;;2.40;99.90;;;;;;5117838;27;20047;-81
2022/12/08 02:05:43;;;;;;;8.90;3.30;;;2.40;99.90;;;;;;5135435;27;20022;-79
2022/12/08 02:08:12;;;;;;;14.65;3.53;;;2.50;99.90;;;;;;5135714;27;20119;-78
2022/12/08 02:10:40;;;;;;;12.10;3.80;;;2.50;99.90;;;;;;5117496;27;20380;-79
2022/12/08 02:13:09;;;;;;;15.70;3.40;;;2.50;99.90;;;;;;5116866;27;20039;-79
2022/12/08 02:16:03;;;;;;;12.00;3.50;;;2.60;99.90;;;;;;5117154;27;20055;-78
2022/12/08 02:18:43;;;;;;;13.45;3.67;;;2.60;99.90;;;;;;5136231;27;20344;-81
2022/12/08 02:21:33;;;;;;;14.88;3.22;;;2.70;99.90;;;;;;5119830;27;20402;-81
2022/12/08 02:24:26;;;;;;;11.35;2.38;;;2.80;99.90;;;;;;5119067;27;20039;-82
2022/12/08 02:27:16;;;;;;;11.25;3.13;;;2.80;99.90;;;;;;5089298;27;20181;-83
2022/12/08 02:30:03;;;;;;;12.50;3.20;;;2.70;99.90;;;;;;5117054;27;20061;-83
2022/12/08 02:32:54;;;;;;;8.02;2.85;;;2.80;99.90;;;;;;5135843;27;20051;-83
2022/12/08 02:35:20;;;;;;;13.02;3.00;;;2.80;99.90;;;;;;5135340;27;20482;-83
2022/12/08 02:38:00;;;;;;;30.80;4.15;;;2.80;99.90;;;;;;5134722;27;20043;-83
2022/12/08 02:40:35;;;;;;;14.35;3.28;;;2.80;99.90;;;;;;5135192;27;20483;-83
2022/12/08 02:43:15;;;;;;;13.90;3.85;;;2.90;99.90;;;;;;5134802;27;20142;-76
2022/12/08 02:45:50;;;;;;;16.00;4.47;;;2.90;99.90;;;;;;5100008;27;20047;-79
2022/12/08 02:48:16;;;;;;;9.70;3.70;;;3.00;99.90;;;;;;5116455;27;20058;-77
2022/12/08 02:50:42;;;;;;;15.60;4.10;;;2.90;99.90;;;;;;5116246;27;20051;-78
2022/12/08 02:53:08;;;;;;;11.95;4.55;;;2.90;99.90;;;;;;5116250;27;20130;-77
2022/12/08 02:55:59;;;;;;;12.18;4.60;;;3.00;99.90;;;;;;5134160;27;20443;-80
2022/12/08 02:58:30;;;;;;;15.65;4.70;;;3.00;99.90;;;;;;5115930;27;20039;-77
2022/12/08 03:01:02;;;;;;;14.23;5.05;;;3.00;99.90;;;;;;5134280;27;20123;-77
2022/12/08 03:03:32;;;;;;;15.98;3.97;;;2.90;99.90;;;;;;5134749;27;20454;-80
2022/12/08 03:06:18;;;;;;;12.98;4.30;;;3.00;99.90;;;;;;5099102;27;20054;-79
2022/12/08 03:08:54;;;;;;;14.93;4.85;;;2.90;99.90;;;;;;5101791;27;20467;-79
2022/12/08 03:11:33;;;;;;;17.52;5.63;;;2.90;99.90;;;;;;5134854;27;20147;-79
2022/12/08 03:14:01;;;;;;;16.17;4.70;;;2.90;99.90;;;;;;5134674;27;20464;-79
2022/12/08 03:16:29;;;;;;;12.30;5.35;;;3.00;99.90;;;;;;5115714;27;20047;-79
2022/12/08 03:19:12;;;;;;;16.80;5.18;;;3.00;99.90;;;;;;5134032;27;20046;-79
2022/12/08 03:21:39;;;;;;;20.17;5.80;;;3.00;99.90;;;;;;5116450;27;20066;-77
2022/12/08 03:24:06;;;;;;;14.75;5.15;;;3.00;99.90;;;;;;5116226;27;20044;-79
2022/12/08 03:26:44;;;;;;;12.95;4.50;;;2.90;99.90;;;;;;5133555;27;20051;-80
2022/12/08 03:29:11;;;;;;;11.77;4.85;;;2.90;99.90;;;;;;5133983;27;20047;-78
2022/12/08 03:31:42;;;;;;;14.95;4.80;;;2.80;99.90;;;;;;5133448;27;20472;-78
2022/12/08 03:34:10;;;;;;;14.73;4.65;;;2.80;99.90;;;;;;5134206;27;20086;-77
2022/12/08 03:36:36;;;;;;;14.57;4.53;;;2.80;99.90;;;;;;5115277;27;20050;-78
2022/12/08 03:39:02;;;;;;;15.73;5.45;;;2.80;99.90;;;;;;5133548;27;20050;-78
2022/12/08 03:41:28;;;;;;;13.48;4.63;;;2.80;99.90;;;;;;5118150;27;20054;-81
2022/12/08 03:43:58;;;;;;;14.20;5.00;;;2.80;99.90;;;;;;5137471;27;20043;-79
2022/12/08 03:46:25;;;;;;;15.15;3.97;;;2.90;99.90;;;;;;5117319;27;20131;-79
2022/12/08 03:48:51;;;;;;;14.77;4.43;;;2.90;99.90;;;;;;5133656;27;20100;-79
2022/12/08 03:51:17;;;;;;;14.75;4.80;;;2.90;99.90;;;;;;5115023;27;20047;-80
2022/12/08 03:53:44;;;;;;;15.65;4.43;;;2.90;99.90;;;;;;5133981;27;20043;-78
2022/12/08 03:56:25;;;;;;;13.27;4.40;;;2.90;99.90;;;;;;5133483;27;20043;-81
2022/12/08 03:58:52;;;;;;;18.17;5.47;;;2.90;99.90;;;;;;5133455;27;20043;-79
2022/12/08 04:01:18;;;;;;;14.50;4.85;;;2.90;99.90;;;;;;5114936;27;20174;-80
2022/12/08 04:03:44;;;;;;;19.90;5.47;;;2.90;99.90;;;;;;5133299;27;20047;-79
2022/12/08 04:06:09;;;;;;;12.15;4.68;;;2.90;99.90;;;;;;5133180;27;20043;-80
2022/12/08 04:08:35;;;;;;;18.33;5.22;;;2.90;99.90;;;;;;5114723;27;20119;-78
2022/12/08 04:11:01;;;;;;;14.68;5.38;;;3.00;99.90;;;;;;5133161;27;20131;-80
2022/12/08 04:13:27;;;;;;;16.17;5.35;;;3.00;99.90;;;;;;5133874;27;20367;-79
2022/12/08 04:15:53;;;;;;;16.77;4.72;;;3.00;99.90;;;;;;5097730;28;20039;-81
2022/12/08 04:18:19;;;;;;;14.68;5.05;;;3.00;99.90;;;;;;5115016;28;20039;-82
2022/12/08 04:20:44;;;;;;;15.88;4.88;;;3.00;99.90;;;;;;5098212;28;20039;-80
2022/12/08 04:23:11;;;;;;;12.15;4.60;;;3.00;99.90;;;;;;5097875;28;20043;-79
2022/12/08 04:25:37;;;;;;;13.80;4.07;;;3.00;99.90;;;;;;5115561;28;20057;-78
2022/12/08 04:28:04;;;;;;;16.23;3.75;;;3.00;99.90;;;;;;5114723;28;20130;-78
2022/12/08 04:30:29;;;;;;;9.85;3.70;;;3.00;99.90;;;;;;5097651;28;20051;-78
2022/12/08 04:32:55;;;;;;;10.30;3.65;;;3.00;99.90;;;;;;5133555;28;20049;-79
2022/12/08 04:35:21;;;;;;;13.23;3.70;;;3.00;99.90;;;;;;5132923;28;20130;-78
2022/12/08 04:37:47;;;;;;;10.95;3.50;;;2.90;99.90;;;;;;5133985;28;20043;-78
2022/12/08 04:40:13;;;;;;;10.02;3.55;;;2.90;99.90;;;;;;5136119;28;20043;-80
2022/12/08 04:42:39;;;;;;;10.93;3.20;;;2.90;99.90;;;;;;5134259;28;20054;-81
2022/12/08 04:45:05;;;;;;;10.00;3.38;;;2.90;99.90;;;;;;5134833;27;20039;-80
2022/12/08 04:47:31;;;;;;;9.80;2.55;;;2.80;99.90;;;;;;5138398;27;20046;-75
2022/12/08 04:49:57;;;;;;;9.88;3.55;;;2.80;99.90;;;;;;5138049;27;20051;-81
2022/12/08 04:52:22;;;;;;;13.10;3.40;;;2.80;99.90;;;;;;5138257;27;20047;-80
2022/12/08 04:54:48;;;;;;;8.15;3.15;;;2.70;99.90;;;;;;5137630;27;20066;-81
2022/12/08 04:57:14;;;;;;;12.85;2.97;;;2.70;99.90;;;;;;5102573;27;20131;-78
2022/12/08 04:59:39;;;;;;;13.20;3.72;;;2.70;99.90;;;;;;5137024;27;20151;-80
2022/12/08 05:02:05;;;;;;;7.43;2.72;;;2.70;99.90;;;;;;5119112;27;20054;-80
2022/12/08 05:04:31;;;;;;;9.38;3.55;;;2.70;99.90;;;;;;5118526;27;20467;-82
2022/12/08 05:06:57;;;;;;;7.97;2.67;;;2.70;99.90;;;;;;5136523;27;20043;-81
2022/12/08 05:09:23;;;;;;;9.45;2.97;;;2.70;99.90;;;;;;5118226;27;20058;-80
2022/12/08 05:11:48;;;;;;;7.32;2.85;;;2.60;99.90;;;;;;5136586;27;20043;-81
2022/12/08 05:14:16;;;;;;;9.88;2.92;;;2.70;99.90;;;;;;5118520;27;20047;-78
2022/12/08 05:16:42;;;;;;;;;;;2.70;99.90;;;;;;5137002;27;20039;-80
2022/12/08 05:19:07;;;;;;;9.97;3.00;;;2.70;99.90;;;;;;5118939;27;20208;-80
2022/12/08 05:21:33;;;;;;;11.00;2.97;;;2.70;99.90;;;;;;5101979;27;20055;-82
2022/12/08 05:23:59;;;;;;;10.02;3.42;;;2.70;99.90;;;;;;5136687;27;20081;-81
2022/12/08 05:26:25;;;;;;;8.27;2.78;;;2.60;99.90;;;;;;5136766;27;20046;-80
2022/12/08 05:28:51;;;;;;;14.27;3.70;;;2.60;99.90;;;;;;5118330;27;20082;-83
2022/12/08 05:31:17;;;;;;;8.65;3.03;;;2.60;99.90;;;;;;5136743;27;20129;-80
2022/12/08 05:33:44;;;;;;;11.40;3.63;;;2.70;99.90;;;;;;5118150;27;20109;-79
2022/12/08 05:36:12;;;;;;;9.25;3.47;;;2.70;99.90;;;;;;5136314;27;20097;-82
2022/12/08 05:38:38;;;;;;;13.88;3.85;;;2.60;99.90;;;;;;5136354;27;20043;-80
2022/12/08 05:41:16;;;;;;;11.13;3.72;;;2.60;99.90;;;;;;5136446;27;20039;-80
2022/12/08 05:43:41;;;;;;;13.20;3.38;;;2.60;99.90;;;;;;5103202;27;20070;-80
2022/12/08 05:46:08;;;;;;;9.23;3.50;;;2.60;99.90;;;;;;5138794;27;20046;-80
2022/12/08 05:48:34;;;;;;;8.93;3.40;;;2.60;99.90;;;;;;5139678;27;20573;-80
2022/12/08 05:51:00;;;;;;;10.10;3.33;;;2.60;99.90;;;;;;5120247;27;20075;-81
2022/12/08 05:53:26;;;;;;;8.82;3.05;;;2.60;99.90;;;;;;5118745;27;20167;-80
2022/12/08 05:55:52;;;;;;;8.90;2.95;;;2.60;99.90;;;;;;5136767;27;20627;-81
2022/12/08 05:58:19;;;;;;;8.63;3.13;;;2.60;99.90;;;;;;5134488;27;20039;-81
2022/12/08 06:00:47;;;;;;;14.70;3.40;;;2.60;99.90;;;;;;5135595;27;20095;-81
2022/12/08 06:03:15;;;;;;;10.80;2.70;;;2.60;99.90;;;;;;5117542;27;20043;-81
2022/12/08 06:05:42;;;;;;;7.20;2.13;;;2.60;99.90;;;;;;5135662;27;20039;-82
2022/12/08 06:08:08;;;;;;;8.73;2.65;;;2.60;99.90;;;;;;5135943;27;20055;-82
2022/12/08 06:10:34;;;;;;;6.97;2.20;;;2.60;99.90;;;;;;5117082;27;20053;-81
2022/12/08 06:13:00;;;;;;;8.20;2.03;;;2.60;99.90;;;;;;5117542;27;20482;-79
2022/12/08 06:15:26;;;;;;;6.40;1.40;;;2.60;99.90;;;;;;5135874;27;20357;-81
2022/12/08 06:17:51;;;;;;;5.80;1.60;;;2.60;99.90;;;;;;5135477;27;20058;-80
2022/12/08 06:20:17;;;;;;;8.82;1.45;;;2.60;99.90;;;;;;5117591;27;20101;-80
2022/12/08 06:22:43;;;;;;;7.50;1.40;;;2.60;99.90;;;;;;5135430;27;20550;-79
2022/12/08 06:25:09;;;;;;;4.88;1.38;;;2.60;99.90;;;;;;5135129;27;20039;-79
2022/12/08 06:27:34;;;;;;;26.17;6.35;;;2.60;99.90;;;;;;5135321;27;20122;-82
2022/12/08 06:30:00;;;;;;;7.00;1.85;;;2.50;99.90;;;;;;5135648;27;20085;-80
2022/12/08 06:32:26;;;;;;;7.65;1.60;;;2.60;99.90;;;;;;5135369;27;20047;-80
2022/12/08 06:34:52;;;;;;;6.15;1.10;;;2.60;99.90;;;;;;5116504;27;20047;-81
2022/12/08 06:37:18;;;;;;;6.45;1.20;;;2.60;99.90;;;;;;5135534;27;20471;-82
2022/12/08 06:39:44;;;;;;;7.15;1.23;;;2.60;99.90;;;;;;5116778;27;20117;-81
2022/12/08 06:44:54;;;;;;;5.70;1.40;;;2.60;99.90;;;;;;5134913;27;20043;-80
2022/12/08 06:47:20;;;;;;;4.03;1.10;;;2.60;99.90;;;;;;5134650;27;20070;-79
2022/12/08 06:49:46;;;;;;;7.63;1.10;;;2.60;99.90;;;;;;5135067;27;20039;-82
2022/12/08 06:52:12;;;;;;;5.53;1.25;;;2.60;99.90;;;;;;5134813;27;20051;-80
2022/12/08 06:54:38;;;;;;;3.20;0.80;;;2.50;99.90;;;;;;5134670;27;20047;-80
2022/12/08 06:57:04;;;;;;;5.88;1.00;;;2.60;99.90;;;;;;5134864;27;20373;-80
2022/12/08 06:59:29;;;;;;;4.07;0.70;;;2.60;99.90;;;;;;5116575;27;20074;-80
2022/12/08 07:01:56;;;;;;;5.20;0.82;;;2.50;99.90;;;;;;5134506;27;20043;-81
2022/12/08 07:04:22;;;;;;;4.20;0.90;;;2.50;99.90;;;;;;5116333;27;20441;-80
2022/12/08 07:06:48;;;;;;;4.65;0.88;;;2.50;99.90;;;;;;5115770;27;20038;-81
2022/12/08 07:09:14;;;;;;;6.30;0.85;;;2.50;99.90;;;;;;5134054;27;20055;-81
2022/12/08 07:11:39;;;;;;;4.60;0.63;;;2.50;99.90;;;;;;5116121;27;20120;-81
2022/12/08 07:14:05;;;;;;;8.77;0.63;;;2.50;99.90;;;;;;5134399;27;20087;-80
2022/12/08 07:16:31;;;;;;;4.85;0.70;;;2.40;99.90;;;;;;5134746;27;20086;-82
2022/12/08 07:18:58;;;;;;;5.15;0.52;;;2.50;99.90;;;;;;5116684;27;20093;-81
2022/12/08 07:21:23;;;;;;;4.85;0.65;;;2.50;99.90;;;;;;5133866;27;20131;-81
2022/12/08 07:23:49;;;;;;;4.30;0.70;;;2.40;99.90;;;;;;5134377;27;20130;-82
2022/12/08 07:26:15;;;;;;;5.57;0.70;;;2.40;99.90;;;;;;5134373;27;20035;-80
2022/12/08 07:28:41;;;;;;;4.38;0.75;;;2.40;99.90;;;;;;5134017;27;20506;-80
2022/12/08 07:31:15;;;;;;;3.50;0.60;;;2.40;99.90;;;;;;5133919;27;20131;-81
2022/12/08 07:33:40;;;;;;;3.75;0.55;;;2.40;99.90;;;;;;5134844;27;20082;-81
2022/12/08 07:36:07;;;;;;;6.70;1.20;;;2.40;99.90;;;;;;5135032;27;20464;-81
2022/12/08 07:38:33;;;;;;;4.78;0.65;;;2.40;99.90;;;;;;5135342;27;20130;-82
2022/12/08 07:40:59;;;;;;;4.53;0.60;;;2.50;99.90;;;;;;5134547;27;20074;-81
2022/12/08 07:43:25;;;;;;;3.22;0.63;;;2.40;99.90;;;;;;5133627;27;20150;-82
2022/12/08 07:45:50;;;;;;;4.18;0.50;;;2.40;99.90;;;;;;5133607;27;20157;-81
2022/12/08 07:48:16;;;;;;;2.97;0.50;;;2.40;99.90;;;;;;5116146;28;20126;-82
2022/12/08 07:50:42;;;;;;;5.60;0.60;;;2.40;99.90;;;;;;5133617;27;20095;-82
2022/12/08 07:53:09;;;;;;;2.10;0.55;;;2.30;99.90;;;;;;5133457;27;20039;-82
2022/12/08 07:55:39;;;;;;;2.92;0.40;;;2.30;99.90;;;;;;5115856;27;20070;-82
2022/12/08 07:58:05;;;;;;;2.17;0.55;;;2.30;99.90;;;;;;5133535;27;20043;-82
2022/12/08 08:00:31;;;;;;;7.60;0.60;;;2.30;99.90;;;;;;5133497;27;20043;-82
2022/12/08 08:02:56;;;;;;;3.05;0.70;;;2.20;99.90;;;;;;5115187;27;20497;-82
2022/12/08 08:05:22;;;;;;;2.83;0.60;;;2.20;99.90;;;;;;5114827;28;20039;-82
2022/12/08 08:07:48;;;;;;;3.33;0.68;;;2.20;99.90;;;;;;5133040;27;20051;-82
2022/12/08 08:10:14;;;;;;;4.30;0.70;;;2.20;99.90;;;;;;5133291;27;20055;-82
2022/12/08 08:12:40;;;;;;;7.45;0.77;;;2.20;99.90;;;;;;5132802;27;20043;-82
2022/12/08 08:15:07;;;;;;;3.03;0.55;;;2.20;99.90;;;;;;5133526;27;20490;-83
2022/12/08 08:17:33;;;;;;;2.20;0.60;;;2.20;99.90;;;;;;5098406;28;20055;-83
2022/12/08 08:19:59;;;;;;;4.53;0.60;;;2.30;99.90;;;;;;5115357;27;20134;-82
2022/12/08 08:22:26;;;;;;;5.15;0.60;;;2.20;99.90;;;;;;5098337;28;20115;-81
2022/12/08 08:24:52;;;;;;;4.28;0.60;;;2.20;99.90;;;;;;5133138;28;20070;-82
2022/12/08 08:27:18;;;;;;;2.42;0.55;;;2.20;99.90;;;;;;5115144;28;20047;-80
2022/12/08 08:29:44;;;;;;;4.28;0.80;;;2.10;99.90;;;;;;5133235;28;20073;-81
2022/12/08 08:32:10;;;;;;;3.70;0.60;;;2.10;99.90;;;;;;5133145;28;20043;-81
2022/12/08 08:34:36;;;;;;;6.95;0.50;;;2.20;99.90;;;;;;5133296;28;20047;-83
2022/12/08 08:37:01;;;;;;;3.90;0.70;;;2.20;99.90;;;;;;5134051;28;20054;-82
2022/12/08 08:39:29;;;;;;;3.88;0.40;;;2.20;99.90;;;;;;5133343;28;20043;-82
2022/12/08 08:41:54;;;;;;;;;;;2.20;99.90;;;;;;5115720;28;20536;-82
2022/12/08 08:44:20;;;;;;;6.03;0.73;;;2.30;99.90;;;;;;5099041;28;19919;-83
2022/12/08 08:46:46;;;;;;;2.00;0.50;;;2.30;99.90;;;;;;5115142;28;20053;-84
2022/12/08 08:49:11;;;;;;;10.75;0.70;;;2.30;99.90;;;;;;5115135;28;20147;-83
2022/12/08 08:51:37;;;;;;;3.22;0.52;;;2.40;99.90;;;;;;5133360;28;20119;-82
2022/12/08 08:54:03;;;;;;;6.15;0.70;;;2.40;99.90;;;;;;5133333;28;20046;-83
2022/12/08 08:56:29;;;;;;;4.10;0.50;;;2.50;99.90;;;;;;5114615;28;20051;-79
2022/12/08 08:58:54;;;;;;;3.30;0.52;;;2.50;99.90;;;;;;5133453;28;20081;-82
2022/12/08 09:01:23;;;;;;;3.95;0.50;;;2.50;99.90;;;;;;5133730;28;20039;-83
2022/12/08 09:03:50;;;;;;;2.58;0.60;;;2.50;99.90;;;;;;5115080;28;20135;-84
2022/12/08 09:06:17;;;;;;;4.88;1.00;;;2.50;99.90;;;;;;5097805;28;20043;-83
2022/12/08 09:08:43;;;;;;;5.40;1.05;;;2.60;99.90;;;;;;5114623;28;20095;-82
2022/12/08 09:11:09;;;;;;;5.95;0.88;;;2.60;99.90;;;;;;5114663;28;20046;-83
2022/12/08 09:13:35;;;;;;;4.93;0.95;;;2.60;99.90;;;;;;5114568;28;20051;-81
2022/12/08 09:16:06;;;;;;;7.00;1.03;;;2.70;99.90;;;;;;5132968;28;20039;-83
2022/12/08 09:18:32;;;;;;;3.05;0.85;;;2.70;99.90;;;;;;5133188;28;20272;-83
2022/12/08 09:21:06;;;;;;;5.90;0.88;;;2.70;99.90;;;;;;5132936;28;20051;-83
2022/12/08 09:23:31;;;;;;;3.15;0.77;;;2.80;99.90;;;;;;5098056;28;20374;-82
2022/12/08 09:25:57;;;;;;;3.13;0.90;;;2.80;99.90;;;;;;5133323;28;20040;-83
2022/12/08 09:28:23;;;;;;;4.03;0.90;;;2.80;99.90;;;;;;5114508;28;20047;-82
2022/12/08 09:30:50;;;;;;;4.78;1.42;;;2.80;99.90;;;;;;5132988;28;20051;-82
2022/12/08 09:33:15;;;;;;;8.68;1.77;;;2.90;99.90;;;;;;5136492;27;20070;-80
2022/12/08 09:35:41;;;;;;;6.47;1.50;;;2.90;99.90;;;;;;5136424;27;20043;-82
2022/12/08 09:38:07;;;;;;;6.40;1.38;;;3.00;99.90;;;;;;5101383;27;20050;-82
2022/12/08 09:40:41;;;;;;;5.70;1.67;;;3.00;99.90;;;;;;5136880;27;20104;-82
2022/12/08 09:43:25;;;;;;;8.02;1.88;;;3.00;99.90;;;;;;5118094;27;20091;-83
2022/12/08 09:45:51;;;;;;;9.57;2.22;;;3.00;99.90;;;;;;5136570;27;20466;-83
2022/12/08 09:48:30;;;;;;;7.97;2.03;;;3.10;99.90;;;;;;5136362;27;20050;-80
2022/12/08 09:50:57;;;;;;;8.48;2.40;;;3.10;99.90;;;;;;5137008;27;20050;-82
2022/12/08 09:53:33;;;;;;;8.73;2.80;;;3.10;99.90;;;;;;5136390;27;20066;-82
2022/12/08 09:56:18;;;;;;;9.30;2.93;;;3.20;99.90;;;;;;5136985;27;20077;-83
2022/12/08 09:58:54;;;;;;;11.00;3.13;;;3.20;99.90;;;;;;5136171;27;20747;-83
2022/12/08 10:01:22;;;;;;;17.10;3.47;;;3.20;99.90;;;;;;5136438;27;20348;-80
2022/12/08 10:03:48;;;;;;;11.65;3.47;;;3.30;99.90;;;;;;5136088;27;20386;-82
2022/12/08 10:06:40;;;;;;;13.95;3.08;;;3.30;99.90;;;;;;5119455;27;20474;-81
2022/12/08 10:09:34;;;;;;;7.15;2.58;;;3.30;99.90;;;;;;5100236;27;20094;-80
2022/12/08 10:12:20;;;;;;;9.40;3.00;;;3.30;99.90;;;;;;5136265;27;20102;-80
2022/12/08 10:15:00;;;;;;;11.27;2.75;;;3.30;99.90;;;;;;5118127;27;20043;-79
2022/12/08 10:17:36;;;;;;;9.63;3.03;;;3.30;99.90;;;;;;5117838;27;20130;-81
2022/12/08 10:20:21;;;;;;;15.75;3.10;;;3.30;99.90;;;;;;5135994;27;20096;-78
2022/12/08 10:22:54;;;;;;;17.25;2.83;;;3.30;99.90;;;;;;5135923;27;20125;-79
2022/12/08 10:25:33;;;;;;;12.15;3.10;;;3.40;99.90;;;;;;5135937;27;20147;-80
2022/12/08 10:27:59;;;;;;;11.38;3.33;;;3.30;99.90;;;;;;5136475;27;20471;-79
2022/12/08 10:30:25;;;;;;;12.68;3.60;;;3.30;99.90;;;;;;5136450;27;20049;-82
2022/12/08 10:32:52;;;;;;;13.63;3.17;;;3.20;99.90;;;;;;5116962;27;20398;-80
2022/12/08 10:35:19;;;;;;;;;;;3.20;99.90;;;;;;5136594;27;20058;-77
2022/12/08 10:38:00;;;;;;;9.23;3.33;;;3.10;99.90;;;;;;5118460;27;19965;-80
2022/12/08 10:40:28;;;;;;;10.63;3.45;;;3.20;99.90;;;;;;5140345;27;20039;-80
2022/12/08 10:42:56;;;;;;;10.90;3.30;;;3.10;99.90;;;;;;5148570;27;20039;-76
2022/12/08 10:45:26;;;;;;;9.63;3.33;;;3.00;99.90;;;;;;5128456;27;20094;-78
2022/12/08 10:48:13;;;;;;;7.00;2.67;;;3.10;99.90;;;;;;5147830;27;20130;-79
2022/12/08 10:50:49;;;;;;;14.23;3.65;;;3.10;99.90;;;;;;5146812;27;20464;-80
2022/12/08 10:53:25;;;;;;;11.13;3.42;;;3.20;99.90;;;;;;5126370;27;20057;-79
2022/12/08 10:56:04;;;;;;;10.15;3.80;;;3.20;99.90;;;;;;5125141;27;20039;-82
2022/12/08 10:58:36;;;;;;;12.15;3.50;;;3.20;99.90;;;;;;5142265;27;20092;-81
2022/12/08 11:01:24;;;;;;;11.70;3.88;;;3.20;99.90;;;;;;5121560;27;20399;-79
2022/12/08 11:03:56;;;;;;;10.65;3.97;;;3.20;99.90;;;;;;5139347;27;20297;-80
2022/12/08 11:06:33;;;;;;;13.75;4.00;;;3.20;99.90;;;;;;5121818;27;20084;-82
2022/12/08 11:09:10;;;;;;;20.60;4.78;;;3.10;99.90;;;;;;5119930;27;20043;-80
2022/12/08 11:12:04;;;;;;;14.98;5.18;;;3.20;99.90;;;;;;5120405;27;20046;-83
2022/12/08 11:14:42;;;;;;;18.30;4.72;;;3.20;99.90;;;;;;5137484;27;20047;-81
2022/12/08 11:17:21;;;;;;;17.92;5.03;;;3.20;99.90;;;;;;5135116;27;20082;-81
2022/12/08 11:20:05;;;;;;;13.98;4.45;;;3.10;99.90;;;;;;5119449;27;20042;-81
2022/12/08 11:22:39;;;;;;;12.77;4.10;;;3.10;99.90;;;;;;5138277;27;20449;-78
2022/12/08 11:25:09;;;;;;;13.85;4.45;;;3.10;99.90;;;;;;5137584;27;20408;-81
2022/12/08 11:27:38;;;;;;;12.10;4.60;;;3.10;99.90;;;;;;5117347;27;20084;-79
2022/12/08 11:30:18;;;;;;;13.55;4.20;;;3.10;99.90;;;;;;5134947;27;20043;-82
2022/12/08 11:32:47;;;;;;;13.50;4.03;;;3.00;99.90;;;;;;5134183;27;20047;-81
2022/12/08 11:35:24;;;;;;;9.73;3.28;;;3.00;99.90;;;;;;5134874;27;20047;-81
2022/12/08 11:37:50;;;;;;;;;;;3.00;99.90;;;;;;5134821;27;20524;-81
2022/12/08 11:40:22;;;;;;;11.68;2.88;;;3.00;99.90;;;;;;5134101;27;19973;-78
2022/12/08 11:43:07;;;;;;;10.48;3.05;;;2.90;99.90;;;;;;5133776;27;20574;-80
2022/12/08 11:45:35;;;;;;;10.73;2.72;;;2.90;99.90;;;;;;5134053;27;20046;-82
2022/12/08 11:48:14;;;;;;;12.38;3.10;;;2.90;99.90;;;;;;5134580;27;20118;-79
2022/12/08 11:51:06;;;;;;;11.88;3.33;;;2.80;99.90;;;;;;5134561;27;20141;-80
2022/12/08 11:53:53;;;;;;;12.20;3.60;;;2.80;99.90;;;;;;5126727;27;20067;-78
2022/12/08 11:56:31;;;;;;;12.13;3.70;;;2.80;99.90;;;;;;5133477;27;20042;-80
2022/12/08 11:59:01;;;;;;;11.32;3.50;;;2.70;99.90;;;;;;5133905;27;20093;-79
2022/12/08 12:01:26;;;;;;;11.93;3.38;;;2.80;99.90;;;;;;5115688;27;20051;-78
2022/12/08 12:04:29;;;;;;;12.73;3.70;;;2.80;99.90;;;;;;5134259;27;20129;-78
2022/12/08 12:07:08;;;;;;;12.05;3.63;;;2.70;99.90;;;;;;5135223;27;20043;-79
2022/12/08 12:09:43;;;;;;;10.35;3.38;;;2.70;99.90;;;;;;5116044;27;20435;-80
2022/12/08 12:12:20;;;;;;;14.95;3.50;;;2.70;99.90;;;;;;5133892;27;20074;-78
2022/12/08 12:15:11;;;;;;;10.57;4.15;;;2.70;99.90;;;;;;5134118;27;20043;-79
2022/12/08 12:17:58;;;;;;;13.63;4.15;;;2.70;99.90;;;;;;5134235;27;20079;-79
2022/12/08 12:20:27;;;;;;;;;;;2.70;99.90;;;;;;5116330;28;20078;-79
2022/12/08 12:23:04;;;;;;;10.20;4.15;;;2.80;99.90;;;;;;5134865;28;19919;-78
2022/12/08 12:25:33;;;;;;;15.68;4.82;;;2.80;99.90;;;;;;5135416;28;20075;-78
2022/12/08 12:28:04;;;;;;;22.83;4.95;;;2.80;99.90;;;;;;5116658;28;20403;-78
2022/12/08 12:31:04;;;;;;;17.15;5.75;;;2.80;99.90;;;;;;5134523;28;20055;-78
2022/12/08 12:33:30;;;;;;;17.70;5.45;;;2.80;99.90;;;;;;5133763;28;20082;-78
2022/12/08 12:36:00;;;;;;;14.27;6.03;;;2.80;99.90;;;;;;5133753;28;20074;-80
2022/12/08 12:41:30;;;;;;;16.48;5.30;;;3.10;99.90;;;;;;5133594;28;20059;-78
2022/12/08 12:44:10;;;;;;;14.40;4.40;;;3.00;99.90;;;;;;5134214;28;20424;-77
2022/12/08 12:46:39;;;;;;;11.02;3.70;;;3.20;99.90;;;;;;5133509;28;20131;-78
2022/12/08 12:49:39;;;;;;;9.75;3.90;;;3.30;99.90;;;;;;5133434;28;20043;-80
2022/12/08 12:52:14;;;;;;;10.95;3.35;;;3.20;99.90;;;;;;5133311;28;20062;-78
2022/12/08 12:55:08;;;;;;;10.10;3.30;;;3.30;99.90;;;;;;5134085;28;20125;-78
2022/12/08 12:57:48;;;;;;;12.25;2.65;;;3.40;99.90;;;;;;5126734;28;20179;-81
2022/12/08 13:00:19;;;;;;;9.32;2.97;;;3.70;99.90;;;;;;5098074;28;20043;-78
2022/12/08 13:02:50;;;;;;;9.93;2.50;;;3.80;99.90;;;;;;5114501;28;20436;-78
2022/12/08 13:05:29;;;;;;;10.82;2.90;;;3.90;99.90;;;;;;5133027;28;20051;-78
2022/12/08 13:08:07;;;;;;;16.05;2.90;;;4.00;99.90;;;;;;5116535;27;20082;-77
2022/12/08 13:10:38;;;;;;;9.20;2.70;;;4.00;99.90;;;;;;5118136;27;20051;-80
2022/12/08 13:13:15;;;;;;;8.57;2.55;;;4.00;99.90;;;;;;5118419;27;20047;-78
2022/12/08 13:15:48;;;;;;;10.00;2.20;;;4.00;99.90;;;;;;5137172;27;20168;-78
2022/12/08 13:18:43;;;;;;;6.43;2.35;;;4.00;99.90;;;;;;5137322;27;20043;-78
2022/12/08 13:21:08;;;;;;;9.93;1.90;;;4.10;99.90;;;;;;5104397;27;20055;-80